Time;durP1;ratioP1;P1;durP2;ratioP2;P2;SDS_P1;SDS_P2;PMS_P1;PMS_P2;Temp;Humidity;BMP_temperature;BMP_pressure;BME280_temperature;BME280_humidity;BME280_pressure;Samples;Min_cycle;Max_cycle;Signal;HPM_P1;HPM_P2
2022/01/28 00:01:02;;;;;;;17.27;2.77;;;5.60;99.90;;;;;;5029275;28;20022;-75
2022/01/28 00:03:28;;;;;;;17.37;3.20;;;;;;;;;;5031359;28;20113;-76
2022/01/28 00:05:54;;;;;;;12.07;2.83;;;5.30;99.90;;;;;;5031802;28;20060;-76
2022/01/28 00:08:19;;;;;;;16.33;2.73;;;;;;;;;;5031765;28;20462;-75
2022/01/28 00:10:45;;;;;;;12.83;2.47;;;;;;;;;;5031695;28;20631;-75
2022/01/28 00:37:26;;;;;;;;;;;4.90;99.90;;;;;;5027140;28;20048;-76
2022/01/28 00:39:51;;;;;;;13.43;2.22;;;4.70;99.90;;;;;;5013672;28;19905;-76
2022/01/28 00:42:17;;;;;;;14.33;1.97;;;;;;;;;;5013708;28;20412;-76
2022/01/28 00:44:43;;;;;;;15.33;2.80;;;;;;;;;;5030990;28;20100;-76
2022/01/28 00:47:09;;;;;;;10.53;1.77;;;4.70;99.90;;;;;;5030921;28;20030;-76
2022/01/28 00:49:35;;;;;;;8.80;2.20;;;4.80;99.90;;;;;;5030862;28;20041;-76
2022/01/28 00:52:01;;;;;;;13.70;2.17;;;;;;;;;;5013258;28;20040;-76
2022/01/28 00:54:26;;;;;;;7.97;1.60;;;4.60;99.90;;;;;;5027582;28;20403;-76
2022/01/28 00:56:52;;;;;;;9.43;2.50;;;;;;;;;;5030478;28;20447;-76
2022/01/28 00:59:18;;;;;;;12.63;2.20;;;4.80;99.90;;;;;;5031194;28;20107;-76
2022/01/28 01:01:44;;;;;;;12.83;2.17;;;4.70;99.90;;;;;;5030493;28;20029;-76
2022/01/28 01:04:09;;;;;;;19.30;2.53;;;4.80;99.90;;;;;;5031190;28;20048;-76
2022/01/28 01:06:35;;;;;;;14.17;3.43;;;4.80;99.90;;;;;;5030553;28;20581;-76
2022/01/28 01:09:01;;;;;;;16.90;2.50;;;4.80;99.90;;;;;;5029967;28;20551;-76
2022/01/28 01:11:27;;;;;;;12.77;2.33;;;4.60;99.90;;;;;;5030710;28;20025;-76
2022/01/28 01:13:54;;;;;;;19.03;2.97;;;;;;;;;;5030548;28;20026;-76
2022/01/28 01:16:28;;;;;;;10.23;1.87;;;4.60;99.90;;;;;;5030333;28;20108;-77
2022/01/28 01:21:38;;;;;;;21.00;2.20;;;4.60;99.90;;;;;;5030571;28;19913;-76
2022/01/28 01:24:05;;;;;;;11.27;2.37;;;4.60;99.90;;;;;;5024623;28;20536;-76
2022/01/28 01:26:33;;;;;;;13.53;2.33;;;;;;;;;;5030257;28;20053;-76
2022/01/28 01:29:00;;;;;;;9.57;2.50;;;4.70;99.90;;;;;;5030334;28;20037;-76
2022/01/28 01:31:26;;;;;;;18.47;2.53;;;;;;;;;;5030260;28;20017;-76
2022/01/28 01:36:18;;;;;;;13.67;2.20;;;;;;;;;;5030808;28;20413;-76
2022/01/28 01:38:44;;;;;;;21.27;4.03;;;;;;;;;;5030087;28;20498;-76
2022/01/28 01:41:16;;;;;;;18.90;4.07;;;4.70;99.90;;;;;;5030580;28;20021;-76
2022/01/28 01:52:04;;;;;;;10.47;2.10;;;;;;;;;;4968584;28;20053;-77
2022/01/28 01:54:35;;;;;;;19.23;3.60;;;4.60;99.90;;;;;;4969199;28;20046;-76
2022/01/28 01:57:02;;;;;;;17.27;2.33;;;4.40;99.90;;;;;;4969340;28;20031;-77
2022/01/28 01:59:27;;;;;;;9.40;1.60;;;4.40;99.90;;;;;;4968608;28;20050;-75
2022/01/28 02:01:53;;;;;;;10.13;2.00;;;4.60;99.90;;;;;;4968116;28;20031;-76
2022/01/28 02:04:19;;;;;;;13.50;2.50;;;;;;;;;;4966542;28;20085;-76
2022/01/28 02:06:45;;;;;;;10.40;2.57;;;4.40;99.90;;;;;;4965460;28;20041;-76
2022/01/28 02:09:11;;;;;;;14.53;3.07;;;4.50;99.90;;;;;;4968198;28;20503;-76
2022/01/28 02:11:39;;;;;;;13.80;2.37;;;4.70;99.90;;;;;;4968576;28;20023;-76
2022/01/28 02:14:05;;;;;;;23.83;3.83;;;4.50;99.90;;;;;;4968470;28;20041;-77
2022/01/28 02:16:31;;;;;;;16.13;2.67;;;;;;;;;;4968417;28;20027;-77
2022/01/28 02:18:57;;;;;;;10.67;2.17;;;;;;;;;;4957821;28;20147;-76
2022/01/28 02:21:23;;;;;;;10.60;1.60;;;;;;;;;;4962586;28;20027;-76
2022/01/28 02:23:54;;;;;;;13.27;2.60;;;4.40;99.90;;;;;;4968450;28;20031;-76
2022/01/28 02:26:20;;;;;;;16.70;1.90;;;;;;;;;;5020581;28;20042;-77
2022/01/28 02:28:50;;;;;;;11.97;1.80;;;;;;;;;;5023481;28;20044;-76
2022/01/28 02:31:25;;;;;;;14.47;2.27;;;;;;;;;;5038472;28;20021;-76
2022/01/28 02:33:55;;;;;;;20.10;2.80;;;;;;;;;;5043351;28;20076;-79
2022/01/28 02:36:21;;;;;;;9.17;2.13;;;;;;;;;;5026212;28;20034;-76
2022/01/28 02:38:46;;;;;;;9.10;1.80;;;4.50;99.90;;;;;;5029698;28;20288;-76
2022/01/28 02:41:12;;;;;;;20.37;3.00;;;;;;;;;;5029851;28;20022;-76
2022/01/28 02:46:08;;;;;;;16.67;2.53;;;;;;;;;;5030064;28;20120;-76
2022/01/28 02:48:36;;;;;;;14.50;2.40;;;4.30;99.90;;;;;;5024528;28;20106;-77
2022/01/28 02:51:08;;;;;;;16.27;3.50;;;;;;;;;;5027139;28;20056;-77
2022/01/28 02:53:41;;;;;;;9.33;2.00;;;4.40;99.90;;;;;;5029259;28;20030;-76
2022/01/28 02:56:55;;;;;;;13.98;2.08;;;4.20;99.90;;;;;;5029661;28;20022;-76
2022/01/28 02:58:58;;;;;;;17.03;2.70;;;4.20;99.90;;;;;;5010793;28;20445;-76
2022/01/28 03:01:24;;;;;;;11.90;2.70;;;4.10;99.90;;;;;;5029159;28;20026;-76
2022/01/28 03:03:51;;;;;;;12.27;2.20;;;4.40;99.90;;;;;;5025883;28;20044;-76
2022/01/28 03:06:19;;;;;;;13.10;2.97;;;4.20;99.90;;;;;;5029524;28;20112;-76
2022/01/28 03:09:08;;;;;;;21.73;2.93;;;4.10;99.90;;;;;;5029035;28;20124;-76
2022/01/28 03:16:51;;;;;;;20.37;3.20;;;4.20;99.90;;;;;;5028712;28;20042;-76
2022/01/28 03:19:20;;;;;;;12.80;3.13;;;4.20;99.90;;;;;;5029081;28;20493;-76
2022/01/28 03:21:54;;;;;;;11.53;2.33;;;4.30;99.90;;;;;;5031831;28;20083;-76
2022/01/28 03:24:21;;;;;;;23.13;2.90;;;4.50;99.90;;;;;;5033064;28;20053;-76
2022/01/28 03:26:53;;;;;;;13.47;2.90;;;4.40;99.90;;;;;;5031957;28;20029;-76
2022/01/28 03:29:18;;;;;;;7.33;1.97;;;4.60;99.90;;;;;;5033023;28;20398;-76
2022/01/28 03:31:44;;;;;;;18.37;1.67;;;;;;;;;;5031905;28;20521;-76
2022/01/28 03:34:10;;;;;;;14.73;2.10;;;4.50;99.90;;;;;;5032955;28;20025;-76
2022/01/28 03:36:36;;;;;;;9.50;1.70;;;;;;;;;;5032206;28;20056;-77
2022/01/28 03:39:03;;;;;;;12.87;2.47;;;4.50;99.90;;;;;;5032938;28;20022;-77
2022/01/28 03:41:29;;;;;;;14.17;1.63;;;4.30;99.90;;;;;;5032394;28;20425;-77
2022/01/28 03:43:59;;;;;;;8.50;1.27;;;;;;;;;;5032139;28;20048;-77
2022/01/28 03:46:26;;;;;;;13.43;2.60;;;4.30;99.90;;;;;;5032414;28;20064;-76
2022/01/28 03:48:52;;;;;;;11.70;2.07;;;4.40;99.90;;;;;;5032020;28;20136;-75
2022/01/28 03:51:18;;;;;;;9.50;2.10;;;4.40;99.90;;;;;;5031376;28;20050;-76
2022/01/28 03:53:43;;;;;;;14.33;2.30;;;4.40;99.90;;;;;;5030988;28;20646;-76
2022/01/28 03:56:09;;;;;;;10.70;1.90;;;;;;;;;;5031614;28;20045;-76
2022/01/28 03:58:35;;;;;;;15.00;2.67;;;4.20;99.90;;;;;;5031726;28;20030;-76
2022/01/28 04:01:03;;;;;;;15.63;2.80;;;;;;;;;;5031881;28;20080;-76
2022/01/28 04:11:28;;;;;;;10.60;2.13;;;4.50;99.90;;;;;;5031579;28;20398;-76
2022/01/28 04:13:56;;;;;;;19.83;3.00;;;;;;;;;;5012017;28;20033;-76
2022/01/28 04:18:47;;;;;;;15.77;2.27;;;;;;;;;;5012242;28;20032;-76
2022/01/28 04:21:13;;;;;;;14.73;2.17;;;;;;;;;;5028996;28;20037;-75
2022/01/28 04:23:39;;;;;;;11.70;1.70;;;4.40;99.90;;;;;;5030217;28;20387;-76
2022/01/28 04:26:05;;;;;;;10.63;1.57;;;;;;;;;;5032229;28;20061;-77
2022/01/28 04:28:30;;;;;;;9.13;1.73;;;4.20;99.90;;;;;;5031123;28;20045;-75
2022/01/28 04:30:56;;;;;;;15.00;2.33;;;;;;;;;;5031709;28;20033;-76
2022/01/28 04:33:22;;;;;;;8.50;1.53;;;4.00;99.90;;;;;;5031178;28;20442;-76
2022/01/28 04:35:51;;;;;;;20.23;3.27;;;4.10;99.90;;;;;;5031212;28;20037;-76
2022/01/28 04:41:03;;;;;;;15.40;1.67;;;4.10;99.90;;;;;;5011766;28;20029;-76
2022/01/28 04:43:37;;;;;;;11.77;2.27;;;3.60;99.90;;;;;;5011937;28;20033;-76
2022/01/28 04:46:11;;;;;;;11.27;2.97;;;4.00;99.90;;;;;;5022064;28;20025;-76
2022/01/28 04:48:45;;;;;;;11.15;1.85;;;;;;;;;;5031083;28;20017;-76
2022/01/28 04:54:03;;;;;;;12.80;2.13;;;3.80;99.90;;;;;;5030890;28;20030;-76
2022/01/28 05:02:16;;;;;;;;;;;3.80;99.90;;;;;;5028824;28;20501;-76
2022/01/28 05:08:05;;;;;;;11.17;2.20;;;;;;;;;;4930938;29;20046;-76
2022/01/28 05:11:06;;;;;;;21.07;3.27;;;3.70;99.90;;;;;;4931870;29;20130;-76
2022/01/28 05:16:40;;;;;;;;;;;3.60;99.90;;;;;;4938943;29;20118;-76
2022/01/28 05:24:45;;;;;;;10.60;1.60;;;3.70;99.90;;;;;;4951130;29;20089;-76
2022/01/28 05:27:07;;;;;;;18.57;1.80;;;3.50;99.90;;;;;;4950734;29;20059;-76
2022/01/28 05:29:32;;;;;;;15.07;1.97;;;3.30;99.90;;;;;;4950553;28;20512;-76
2022/01/28 05:31:58;;;;;;;10.30;2.60;;;3.40;99.90;;;;;;4937653;29;20043;-76
2022/01/28 05:34:25;;;;;;;18.67;3.70;;;3.40;99.90;;;;;;4931154;29;20028;-75
2022/01/28 05:36:52;;;;;;;9.50;2.10;;;3.50;99.90;;;;;;4930566;29;20050;-76
2022/01/28 05:39:18;;;;;;;11.17;1.03;;;3.30;99.90;;;;;;4931574;29;20031;-76
2022/01/28 05:41:44;;;;;;;7.63;1.80;;;;;;;;;;4949084;29;20135;-76
2022/01/28 05:44:09;;;;;;;14.53;1.93;;;3.30;99.90;;;;;;5002623;28;20042;-76
2022/01/28 05:46:35;;;;;;;8.37;1.10;;;3.30;99.90;;;;;;5008432;28;20104;-76
2022/01/28 05:49:00;;;;;;;13.10;3.13;;;3.30;99.90;;;;;;5011148;28;20048;-76
2022/01/28 05:51:26;;;;;;;14.73;3.30;;;3.20;99.90;;;;;;5010148;28;20513;-76
2022/01/28 05:53:53;;;;;;;14.33;2.40;;;;;;;;;;5028890;28;20037;-76
2022/01/28 05:56:19;;;;;;;10.07;1.80;;;;;;;;;;5030391;28;20048;-76
2022/01/28 05:58:45;;;;;;;12.83;1.83;;;3.30;99.90;;;;;;5029746;28;20555;-76
2022/01/28 06:01:11;;;;;;;9.43;2.90;;;;;;;;;;5030418;28;20530;-76
2022/01/28 06:03:37;;;;;;;7.50;3.03;;;3.20;99.90;;;;;;5029746;28;20055;-76
2022/01/28 06:06:03;;;;;;;21.73;3.00;;;;;;;;;;5027649;28;20025;-76
2022/01/28 06:08:29;;;;;;;8.23;1.60;;;3.20;99.90;;;;;;5010596;28;20081;-76
2022/01/28 06:10:55;;;;;;;8.53;2.10;;;;;;;;;;5010246;28;20365;-76
2022/01/28 06:13:20;;;;;;;7.77;1.67;;;3.30;99.90;;;;;;5010556;28;20053;-76
2022/01/28 06:15:46;;;;;;;6.83;1.83;;;;;;;;;;5009890;28;20113;-76
2022/01/28 06:18:12;;;;;;;12.63;1.93;;;3.40;99.90;;;;;;4992774;28;20064;-76
2022/01/28 06:20:38;;;;;;;9.70;2.90;;;;;;;;;;5009400;28;20065;-77
2022/01/28 06:23:04;;;;;;;9.23;1.80;;;3.80;99.90;;;;;;5010479;28;20030;-76
2022/01/28 06:25:30;;;;;;;10.00;1.90;;;3.50;99.90;;;;;;5022709;28;20418;-76
2022/01/28 06:27:56;;;;;;;13.23;2.90;;;3.60;99.90;;;;;;5012203;28;20032;-76
2022/01/28 06:30:22;;;;;;;6.37;1.27;;;;;;;;;;5030178;28;20026;-76
2022/01/28 06:32:48;;;;;;;10.47;2.60;;;3.60;99.90;;;;;;5029428;28;20071;-76
2022/01/28 06:35:14;;;;;;;18.73;3.23;;;3.70;99.90;;;;;;5029540;28;20021;-76
2022/01/28 06:37:42;;;;;;;8.93;1.43;;;3.80;99.90;;;;;;5029459;28;20036;-76
2022/01/28 06:40:14;;;;;;;10.23;2.23;;;4.00;99.90;;;;;;5021289;28;20030;-76
2022/01/28 06:42:40;;;;;;;9.73;2.37;;;3.80;99.90;;;;;;5009733;28;20045;-76
2022/01/28 06:45:07;;;;;;;12.03;2.17;;;3.90;99.90;;;;;;5010078;28;20030;-76
2022/01/28 06:47:35;;;;;;;15.80;2.37;;;;;;;;;;5009977;28;20096;-76
2022/01/28 06:50:02;;;;;;;13.13;2.53;;;;;;;;;;5009595;28;20046;-76
2022/01/28 06:52:28;;;;;;;11.20;2.30;;;;;;;;;;5010213;28;20364;-77
2022/01/28 06:54:54;;;;;;;13.57;1.60;;;4.00;99.90;;;;;;5009763;28;20034;-75
2022/01/28 06:57:19;;;;;;;11.33;2.00;;;3.90;99.90;;;;;;5014592;28;20562;-76
2022/01/28 06:59:45;;;;;;;13.90;2.40;;;3.60;99.90;;;;;;5032797;28;20036;-75
2022/01/28 07:02:10;;;;;;;14.20;1.97;;;3.50;99.90;;;;;;5032722;28;20305;-76
2022/01/28 07:04:36;;;;;;;11.63;1.90;;;;;;;;;;5032538;28;20100;-76
2022/01/28 07:07:02;;;;;;;13.57;1.90;;;3.40;99.90;;;;;;5033618;28;20576;-76
2022/01/28 07:09:28;;;;;;;9.43;2.00;;;;;;;;;;5032875;28;20022;-75
2022/01/28 07:11:54;;;;;;;9.53;1.60;;;3.20;99.90;;;;;;5032904;28;20030;-77
2022/01/28 07:14:20;;;;;;;14.83;1.70;;;;;;;;;;5030501;28;20234;-75
2022/01/28 07:16:45;;;;;;;10.87;2.07;;;2.80;99.90;;;;;;5012970;28;20387;-76
2022/01/28 07:19:11;;;;;;;17.53;1.80;;;3.00;99.90;;;;;;5014253;28;20076;-77
2022/01/28 07:21:36;;;;;;;12.93;1.70;;;3.30;99.90;;;;;;5012947;28;20034;-77
2022/01/28 07:24:03;;;;;;;10.73;1.70;;;3.20;99.90;;;;;;5024281;28;20388;-77
2022/01/28 07:26:28;;;;;;;10.27;1.53;;;3.20;99.90;;;;;;5014317;28;20407;-77
2022/01/28 07:28:54;;;;;;;9.13;1.23;;;3.20;99.90;;;;;;5017962;28;20022;-76
2022/01/28 07:31:19;;;;;;;18.83;1.90;;;;;;;;;;5033065;28;20026;-77
2022/01/28 07:33:46;;;;;;;7.40;1.57;;;2.90;99.90;;;;;;5032053;28;20038;-77
2022/01/28 07:36:13;;;;;;;9.67;1.70;;;2.90;99.90;;;;;;5032895;28;20021;-77
2022/01/28 07:38:39;;;;;;;19.20;2.93;;;;;;;;;;5032333;28;20032;-78
2022/01/28 07:41:05;;;;;;;8.33;1.67;;;3.10;99.90;;;;;;5032661;28;20026;-77
2022/01/28 07:43:33;;;;;;;13.70;2.30;;;3.00;99.90;;;;;;5032765;28;20029;-77
2022/01/28 07:45:59;;;;;;;7.97;1.53;;;3.10;99.90;;;;;;5032335;28;20478;-77
2022/01/28 07:48:24;;;;;;;12.43;2.73;;;3.20;99.90;;;;;;5032362;28;20026;-77
2022/01/28 07:50:50;;;;;;;6.97;2.00;;;3.20;99.90;;;;;;5031890;28;20053;-78
2022/01/28 07:53:17;;;;;;;9.83;2.00;;;3.30;99.90;;;;;;5031490;28;20052;-77
2022/01/28 07:55:43;;;;;;;11.70;1.67;;;3.30;99.90;;;;;;5025316;28;20021;-77
2022/01/28 07:58:09;;;;;;;12.60;1.83;;;;;;;;;;5024544;28;20049;-72
2022/01/28 08:00:35;;;;;;;13.00;2.27;;;;;;;;;;5028716;28;20029;-72
2022/01/28 08:03:00;;;;;;;17.87;2.57;;;3.60;99.90;;;;;;5013672;28;20391;-71
2022/01/28 08:05:26;;;;;;;12.90;1.73;;;3.60;99.90;;;;;;5032064;28;20164;-72
2022/01/28 08:07:52;;;;;;;9.67;1.50;;;;;;;;;;5029856;28;20064;-73
2022/01/28 08:10:19;;;;;;;12.27;2.07;;;3.40;99.90;;;;;;5014380;28;20443;-73
2022/01/28 08:12:47;;;;;;;15.30;1.73;;;3.30;99.90;;;;;;5031394;28;20364;-72
2022/01/28 08:15:13;;;;;;;14.17;2.63;;;;;;;;;;5031707;28;20450;-72
2022/01/28 08:17:39;;;;;;;17.10;2.73;;;;;;;;;;5031054;28;20474;-72
2022/01/28 08:20:05;;;;;;;6.93;1.60;;;3.20;99.90;;;;;;5032166;28;20080;-72
2022/01/28 08:22:31;;;;;;;14.40;2.03;;;3.10;99.90;;;;;;5032172;28;20041;-72
2022/01/28 08:24:56;;;;;;;7.27;2.03;;;3.10;99.90;;;;;;5030791;28;20094;-73
2022/01/28 08:27:22;;;;;;;16.87;3.07;;;3.10;99.90;;;;;;5032279;28;20037;-72
2022/01/28 08:29:47;;;;;;;14.23;2.43;;;3.20;99.90;;;;;;5032830;28;20029;-72
2022/01/28 08:32:13;;;;;;;14.93;3.63;;;3.10;99.90;;;;;;5023434;28;20487;-72
2022/01/28 08:34:39;;;;;;;13.73;2.60;;;3.10;99.90;;;;;;5031154;28;20021;-72
2022/01/28 08:37:04;;;;;;;10.90;2.70;;;3.30;99.90;;;;;;5031696;28;20091;-72
2022/01/28 08:39:31;;;;;;;15.13;2.77;;;3.40;99.90;;;;;;5031664;28;20033;-73
2022/01/28 08:41:57;;;;;;;14.80;2.67;;;;;;;;;;5028156;28;20100;-72
2022/01/28 08:44:23;;;;;;;10.37;3.03;;;3.30;99.90;;;;;;5013325;28;20109;-72
2022/01/28 08:46:48;;;;;;;14.47;3.03;;;3.40;99.90;;;;;;5030636;28;20437;-72
2022/01/28 08:49:14;;;;;;;13.53;2.47;;;3.40;99.90;;;;;;5013153;28;20032;-72
2022/01/28 08:51:40;;;;;;;18.43;3.23;;;;;;;;;;5030801;28;20046;-72
2022/01/28 08:54:06;;;;;;;14.83;2.60;;;;;;;;;;5031488;28;20475;-72
2022/01/28 08:56:32;;;;;;;16.40;2.67;;;;;;;;;;5028463;28;20048;-72
2022/01/28 08:58:58;;;;;;;9.50;2.30;;;;;;;;;;5030857;28;20029;-72
2022/01/28 09:01:23;;;;;;;14.13;3.40;;;3.80;99.90;;;;;;5030760;28;20035;-72
2022/01/28 09:03:51;;;;;;;17.83;4.27;;;;;;;;;;5030787;28;20029;-72
2022/01/28 09:06:17;;;;;;;13.63;3.13;;;;;;;;;;5027144;28;20052;-72
2022/01/28 09:08:44;;;;;;;11.77;2.20;;;3.90;99.90;;;;;;5017587;28;20475;-72
2022/01/28 09:13:47;;;;;;;19.53;2.80;;;3.90;99.90;;;;;;5010689;28;20029;-72
2022/01/28 09:16:13;;;;;;;16.80;2.50;;;;;;;;;;5012629;28;20380;-72
2022/01/28 09:18:39;;;;;;;17.10;3.60;;;4.10;99.90;;;;;;5029971;28;20112;-72
2022/01/28 09:21:05;;;;;;;12.30;3.30;;;4.10;99.90;;;;;;5030916;28;20097;-72
2022/01/28 09:23:31;;;;;;;11.07;2.73;;;;;;;;;;5020008;28;20033;-72
2022/01/28 09:25:57;;;;;;;8.67;3.67;;;4.30;99.90;;;;;;5017824;28;20068;-72
2022/01/28 09:28:23;;;;;;;21.87;4.03;;;;;;;;;;5029298;28;20033;-72
2022/01/28 09:30:49;;;;;;;15.27;4.13;;;;;;;;;;5036949;28;20430;-72
2022/01/28 09:33:14;;;;;;;16.63;4.60;;;4.70;99.90;;;;;;5033408;28;20056;-72
2022/01/28 09:35:43;;;;;;;18.93;4.30;;;;;;;;;;5030107;28;20474;-72
2022/01/28 09:38:10;;;;;;;19.07;4.30;;;4.50;99.90;;;;;;5011617;28;20068;-72
2022/01/28 09:40:36;;;;;;;13.80;3.30;;;;;;;;;;5029978;28;20303;-72
2022/01/28 09:43:04;;;;;;;21.63;4.13;;;4.70;99.90;;;;;;5010312;28;20438;-72
2022/01/28 09:45:30;;;;;;;16.10;3.47;;;;;;;;;;5010793;28;20058;-72
2022/01/28 09:47:57;;;;;;;14.13;2.97;;;4.90;99.90;;;;;;5015832;28;20060;-72
2022/01/28 09:50:25;;;;;;;12.47;4.20;;;5.00;99.90;;;;;;5028716;28;20494;-72
2022/01/28 09:52:51;;;;;;;19.13;3.57;;;5.00;99.90;;;;;;5029894;28;20044;-71
2022/01/28 09:55:18;;;;;;;14.03;4.63;;;5.00;99.90;;;;;;5012635;28;20045;-72
2022/01/28 09:57:49;;;;;;;13.73;2.80;;;5.10;99.90;;;;;;5023068;28;20065;-72
2022/01/28 10:00:15;;;;;;;12.40;2.47;;;;;;;;;;5010602;28;20029;-72
2022/01/28 10:02:59;;;;;;;9.63;2.50;;;5.10;99.90;;;;;;5010047;28;20026;-72
2022/01/28 10:05:31;;;;;;;11.70;2.38;;;5.30;99.90;;;;;;5023748;28;20506;-72
2022/01/28 10:08:03;;;;;;;13.83;3.13;;;5.50;99.90;;;;;;5012791;28;20026;-73
2022/01/28 10:11:14;;;;;;;12.47;2.33;;;5.40;99.90;;;;;;5030213;28;20025;-73
2022/01/28 10:16:12;;;;;;;14.40;2.87;;;5.80;99.90;;;;;;5029140;28;20040;-72
2022/01/28 10:18:45;;;;;;;12.87;2.30;;;5.90;99.90;;;;;;5024106;28;20068;-73
2022/01/28 10:21:32;;;;;;;13.95;1.88;;;6.40;99.90;;;;;;5010475;28;20036;-73
2022/01/28 10:24:08;;;;;;;12.00;2.13;;;6.00;99.90;;;;;;5007668;28;20079;-73
2022/01/28 10:26:34;;;;;;;14.07;2.93;;;;;;;;;;5029483;28;20372;-72
2022/01/28 10:29:02;;;;;;;11.03;2.43;;;6.10;99.90;;;;;;5029504;28;20104;-73
2022/01/28 10:31:38;;;;;;;9.93;1.60;;;6.10;99.90;;;;;;5032720;28;20109;-72
2022/01/28 10:34:16;;;;;;;12.60;2.90;;;6.30;99.90;;;;;;5033978;28;20442;-73
2022/01/28 10:36:42;;;;;;;14.43;1.80;;;6.50;99.90;;;;;;5033433;28;20438;-71
2022/01/28 10:39:16;;;;;;;11.50;3.53;;;6.50;99.90;;;;;;5034189;28;20021;-71
2022/01/28 10:41:54;;;;;;;18.27;2.70;;;6.40;99.90;;;;;;5033107;28;20022;-73
2022/01/28 10:44:20;;;;;;;14.23;2.43;;;6.40;99.90;;;;;;5020959;28;20113;-73
2022/01/28 10:46:57;;;;;;;19.53;2.47;;;6.70;99.90;;;;;;5013630;28;20053;-74
2022/01/28 10:49:28;;;;;;;12.43;1.93;;;6.70;99.90;;;;;;5014174;28;20033;-73
2022/01/28 10:51:53;;;;;;;11.13;2.10;;;6.80;99.90;;;;;;5033127;28;20041;-73
2022/01/28 10:54:22;;;;;;;14.80;2.50;;;6.90;99.90;;;;;;5030072;28;20083;-73
2022/01/28 10:56:51;;;;;;;18.10;2.63;;;7.00;99.90;;;;;;5032671;28;20095;-73
2022/01/28 10:59:19;;;;;;;17.60;2.10;;;7.30;99.90;;;;;;5033193;28;20025;-72
2022/01/28 11:01:46;;;;;;;14.47;3.03;;;7.30;99.90;;;;;;5032571;28;20029;-72
2022/01/28 11:04:14;;;;;;;13.00;2.10;;;7.30;99.90;;;;;;5029651;28;20068;-72
2022/01/28 11:06:41;;;;;;;7.10;1.70;;;7.70;99.90;;;;;;5030552;28;20037;-72
2022/01/28 11:09:11;;;;;;;15.53;2.57;;;7.60;99.90;;;;;;5033022;28;20021;-73
2022/01/28 11:11:37;;;;;;;13.77;2.60;;;7.70;99.90;;;;;;5031916;28;20018;-73
2022/01/28 11:14:04;;;;;;;13.53;2.43;;;8.00;99.90;;;;;;5028707;28;20515;-73
2022/01/28 11:16:30;;;;;;;15.03;2.07;;;;;;;;;;5015184;28;20068;-72
2022/01/28 11:18:56;;;;;;;17.20;2.97;;;7.80;99.90;;;;;;5029732;28;20099;-73
2022/01/28 11:21:48;;;;;;;18.93;2.57;;;7.90;99.90;;;;;;5032952;28;20101;-73
2022/01/28 11:24:34;;;;;;;12.60;2.07;;;7.90;99.90;;;;;;4996307;28;20029;-73
2022/01/28 11:27:23;;;;;;;15.20;1.63;;;7.90;99.90;;;;;;5032752;28;20022;-73
2022/01/28 11:29:48;;;;;;;13.37;1.67;;;8.00;99.90;;;;;;5031530;28;20100;-73
2022/01/28 11:32:18;;;;;;;10.57;2.17;;;7.80;99.90;;;;;;5033240;28;20105;-73
2022/01/28 11:34:58;;;;;;;10.27;2.27;;;8.00;99.90;;;;;;5031692;28;20036;-73
2022/01/28 11:37:26;;;;;;;14.63;1.77;;;7.80;99.90;;;;;;5032854;28;20037;-73
2022/01/28 11:39:52;;;;;;;12.67;3.57;;;7.60;99.90;;;;;;5014289;28;20501;-73
2022/01/28 11:42:24;;;;;;;10.97;1.60;;;7.70;99.90;;;;;;5032316;28;20036;-73
2022/01/28 11:44:55;;;;;;;19.23;2.40;;;8.00;99.90;;;;;;5031157;28;20040;-73
2022/01/28 11:47:33;;;;;;;13.60;1.60;;;7.90;99.90;;;;;;5032206;28;20508;-73
2022/01/28 11:50:07;;;;;;;12.10;2.00;;;7.90;99.90;;;;;;5031651;28;20071;-73
2022/01/28 11:52:40;;;;;;;10.07;1.20;;;7.90;99.90;;;;;;5014284;28;20109;-73
2022/01/28 11:55:16;;;;;;;10.30;1.55;;;8.20;99.90;;;;;;5031878;28;20029;-73
2022/01/28 11:57:55;;;;;;;8.27;1.57;;;8.30;99.90;;;;;;5031085;28;20030;-73
2022/01/28 12:00:43;;;;;;;10.07;1.70;;;8.10;99.90;;;;;;5031968;28;20426;-73
2022/01/28 12:03:21;;;;;;;7.67;2.30;;;8.20;99.90;;;;;;5012438;28;20048;-73
2022/01/28 12:05:47;;;;;;;6.00;1.20;;;7.80;99.90;;;;;;5029342;28;20057;-73
2022/01/28 12:08:14;;;;;;;7.73;1.37;;;7.80;99.90;;;;;;5020427;28;20521;-73
2022/01/28 12:10:44;;;;;;;9.93;0.90;;;7.70;99.90;;;;;;5012053;28;20030;-73
2022/01/28 12:13:16;;;;;;;8.53;1.03;;;7.60;99.90;;;;;;5012635;28;20036;-73
2022/01/28 12:15:59;;;;;;;9.73;1.47;;;7.80;99.90;;;;;;5013035;28;20387;-73
2022/01/28 12:18:25;;;;;;;13.70;1.50;;;;;;;;;;5026514;28;20414;-73
2022/01/28 12:20:52;;;;;;;13.87;1.70;;;7.50;99.90;;;;;;5031230;28;20024;-71
2022/01/28 12:23:18;;;;;;;6.73;0.90;;;;;;;;;;5030736;28;20356;-74
2022/01/28 12:25:44;;;;;;;10.60;2.53;;;7.20;99.90;;;;;;5031671;28;20140;-73
2022/01/28 12:28:31;;;;;;;10.07;2.10;;;7.30;99.90;;;;;;5013885;28;20396;-73
2022/01/28 12:31:12;;;;;;;13.80;2.40;;;6.70;99.90;;;;;;5030263;28;20159;-72
2022/01/28 12:33:44;;;;;;;13.20;4.07;;;8.50;99.90;;;;;;5009618;28;20026;-73
2022/01/28 12:36:32;;;;;;;13.93;4.73;;;7.20;99.90;;;;;;5012127;28;20239;-73
2022/01/28 12:39:20;;;;;;;13.23;3.87;;;7.00;99.90;;;;;;5017260;28;20029;-73
2022/01/28 12:41:52;;;;;;;13.53;3.97;;;7.20;99.90;;;;;;5029728;28;20061;-72
2022/01/28 12:44:19;;;;;;;12.53;2.17;;;7.20;99.90;;;;;;5030536;28;20120;-72
2022/01/28 12:46:53;;;;;;;9.03;1.40;;;7.10;99.90;;;;;;5030797;28;20104;-72
2022/01/28 12:49:26;;;;;;;13.48;3.03;;;7.20;99.90;;;;;;5030470;28;20145;-72
2022/01/28 12:51:55;;;;;;;9.68;1.63;;;7.40;99.90;;;;;;5029156;28;20048;-72
2022/01/28 12:54:31;;;;;;;8.17;1.30;;;7.40;99.90;;;;;;5030399;28;20034;-72
2022/01/28 12:56:57;;;;;;;8.00;1.43;;;;;;;;;;5031117;28;20041;-72
2022/01/28 12:59:22;;;;;;;8.93;1.33;;;7.60;99.90;;;;;;5029874;28;20017;-72
2022/01/28 13:01:55;;;;;;;10.37;1.70;;;7.80;99.90;;;;;;5030887;28;20029;-71
2022/01/28 13:04:24;;;;;;;10.47;1.83;;;7.90;99.90;;;;;;5031331;28;20069;-72
2022/01/28 13:09:23;;;;;;;8.70;1.57;;;8.00;99.90;;;;;;5031525;28;20036;-72
2022/01/28 13:11:55;;;;;;;7.20;2.38;;;7.90;99.90;;;;;;5030951;28;20049;-72
2022/01/28 13:14:27;;;;;;;7.33;1.27;;;8.00;99.90;;;;;;5031171;28;20033;-71
2022/01/28 13:16:54;;;;;;;16.33;1.73;;;7.90;99.90;;;;;;5030601;28;20487;-72
2022/01/28 13:19:19;;;;;;;8.60;0.90;;;7.70;99.90;;;;;;5031050;28;20068;-71
2022/01/28 13:21:47;;;;;;;6.60;0.93;;;7.80;99.90;;;;;;5011535;28;20050;-72
2022/01/28 13:24:19;;;;;;;7.17;0.83;;;7.80;99.90;;;;;;5011203;28;20454;-72
2022/01/28 13:27:00;;;;;;;5.87;0.97;;;7.70;99.90;;;;;;5010884;28;20026;-72
2022/01/28 13:29:45;;;;;;;7.60;1.30;;;7.70;99.90;;;;;;5011031;28;20105;-72
2022/01/28 13:32:18;;;;;;;9.90;1.17;;;7.80;99.90;;;;;;5011183;28;20398;-72
2022/01/28 13:34:49;;;;;;;7.77;0.97;;;7.60;99.90;;;;;;5010384;28;20029;-72
2022/01/28 13:37:34;;;;;;;8.70;1.37;;;7.60;99.90;;;;;;5030706;28;20439;-71
2022/01/28 13:40:01;;;;;;;6.07;1.30;;;7.60;99.90;;;;;;5030175;28;20026;-71
2022/01/28 13:42:27;;;;;;;12.00;1.63;;;;;;;;;;5012524;28;20022;-72
2022/01/28 13:44:53;;;;;;;6.83;1.63;;;7.60;99.90;;;;;;5029645;28;20394;-72
2022/01/28 13:47:18;;;;;;;8.93;2.87;;;7.90;99.90;;;;;;5026242;28;20025;-72
2022/01/28 13:49:44;;;;;;;10.63;1.40;;;7.80;99.90;;;;;;5029001;28;20041;-71
2022/01/28 13:52:22;;;;;;;11.77;2.27;;;7.70;99.90;;;;;;5029170;28;20574;-71
2022/01/28 13:54:48;;;;;;;9.53;1.50;;;;;;;;;;5022830;28;20549;-72
2022/01/28 13:57:14;;;;;;;7.87;1.70;;;7.90;99.90;;;;;;5030020;28;20118;-71
2022/01/28 13:59:42;;;;;;;4.80;0.90;;;8.00;99.90;;;;;;5029542;28;20475;-72
2022/01/28 14:02:16;;;;;;;8.87;1.23;;;8.00;99.90;;;;;;5029986;28;20032;-72
2022/01/28 14:04:45;;;;;;;9.13;1.60;;;8.20;99.90;;;;;;5028955;28;20032;-71
2022/01/28 14:07:17;;;;;;;10.60;1.50;;;8.10;99.90;;;;;;5030240;28;20017;-72
2022/01/28 14:09:53;;;;;;;7.03;1.30;;;7.90;99.90;;;;;;5022022;28;20034;-72
2022/01/28 14:12:37;;;;;;;7.30;1.10;;;8.00;99.90;;;;;;5010649;28;20116;-71
2022/01/28 14:18:02;;;;;;;7.77;1.67;;;8.10;99.90;;;;;;4997089;28;20506;-73
2022/01/28 14:20:28;;;;;;;10.80;2.27;;;8.10;99.90;;;;;;5010416;28;20033;-72
2022/01/28 14:22:54;;;;;;;9.20;1.20;;;8.00;99.90;;;;;;5014522;28;20033;-73
2022/01/28 14:25:21;;;;;;;8.93;2.53;;;9.00;99.90;;;;;;5017619;28;20395;-73
2022/01/28 14:27:59;;;;;;;15.63;2.27;;;8.30;99.90;;;;;;5016550;28;20025;-73
2022/01/28 14:30:36;;;;;;;10.77;2.57;;;8.20;99.90;;;;;;5030113;28;20022;-73
2022/01/28 14:33:03;;;;;;;7.37;1.77;;;8.30;99.90;;;;;;5029682;28;20112;-73
2022/01/28 14:35:29;;;;;;;9.10;2.03;;;8.30;99.90;;;;;;5029919;28;20024;-73
2022/01/28 14:37:54;;;;;;;16.27;2.87;;;;;;;;;;5029015;28;20041;-73
2022/01/28 14:40:20;;;;;;;5.67;1.63;;;;;;;;;;5029833;28;20087;-74
2022/01/28 14:42:46;;;;;;;17.23;2.50;;;;;;;;;;5029149;28;20482;-74
2022/01/28 14:45:12;;;;;;;8.87;1.53;;;8.10;99.90;;;;;;5029671;28;20057;-72
2022/01/28 14:47:38;;;;;;;10.43;2.20;;;;;;;;;;5028726;28;20036;-74
2022/01/28 14:50:05;;;;;;;13.57;2.17;;;8.30;99.90;;;;;;5015639;28;20133;-72
2022/01/28 14:52:31;;;;;;;11.63;1.87;;;8.40;99.90;;;;;;5009927;28;20121;-72